METAR Data
IDs: Format: Raw Decoded Include TAF

Data at: 1920 UTC 07 Dec 2021

KS21 071915Z AUTO 18016KT 10SM SCT014 06/03 A3011 RMK AO2
KS21 071855Z AUTO 15009KT 10SM BKN014 05/03 A3012 RMK AO2
KS21 071835Z AUTO 20010KT 10SM SCT011 SCT016 05/03 A3012 RMK AO2
KS21 071815Z AUTO 20008KT 10SM BKN006 BKN011 04/02 A3011 RMK AO2
KS21 071755Z AUTO 21007KT 10SM OVC004 03/02 A3011 RMK AO2
KS21 071735Z AUTO 19010KT 10SM OVC004 03/02 A3011 RMK AO2
KS21 071715Z AUTO 20007KT 10SM OVC004 03/02 A3011 RMK AO2
KS21 071655Z AUTO 21008KT 6SM BR OVC003 02/02 A3010 RMK AO2
KS21 071635Z AUTO 19007KT 10SM OVC005 03/02 A3010 RMK AO2
KS21 071615Z AUTO 19010KT 10SM BKN006 OVC012 03/02 A3009 RMK AO2
KS21 071555Z AUTO 21007KT 10SM SCT007 OVC013 03/02 A3008 RMK AO2
KS21 071535Z AUTO 24009KT 10SM OVC013 03/02 A3008 RMK AO2
KS21 071515Z AUTO 23007KT 10SM OVC013 03/02 A3007 RMK AO2
KS21 071455Z AUTO 21006KT 10SM OVC013 03/02 A3007 RMK AO2
KS21 071435Z AUTO 20004KT 10SM OVC012 03/02 A3008 RMK AO2
KS21 071410Z AUTO 26004KT 10SM OVC011 03/02 A3008 RMK AO2
KS21 071355Z AUTO 24005KT 10SM OVC010 03/02 A3007 RMK AO2
KS21 071335Z AUTO 22005KT 10SM OVC009 03/02 A3006 RMK AO2
KS21 071315Z AUTO 21005KT 10SM OVC009 03/02 A3006 RMK AO2
KS21 071250Z AUTO 22006KT 10SM OVC009 03/02 A3006 RMK AO2
KS21 071235Z AUTO 22006KT 10SM OVC008 03/02 A3005 RMK AO2
KS21 071215Z AUTO 21007KT 10SM OVC008 03/02 A3004 RMK AO2
KS21 071155Z AUTO 22006KT 10SM OVC008 03/02 A3004 RMK AO2
KS21 071135Z AUTO 20005KT 10SM OVC008 03/02 A3004 RMK AO2
KS21 071115Z AUTO 21007KT 10SM OVC009 03/02 A3005 RMK AO2
KS21 071055Z AUTO 22006KT 10SM OVC010 03/02 A3005 RMK AO2
KS21 071035Z AUTO 21005KT 10SM OVC010 03/02 A3004 RMK AO2
KS21 071015Z AUTO 21005KT 10SM OVC013 03/02 A3005 RMK AO2
KS21 070955Z AUTO 21005KT 10SM OVC014 03/02 A3005 RMK AO2
KS21 070935Z AUTO 23004KT 10SM OVC016 04/03 A3005 RMK AO2
KS21 070915Z AUTO 21006KT 10SM OVC017 04/03 A3004 RMK AO2
KS21 070855Z AUTO 21006KT 10SM OVC017 04/03 A3004 RMK AO2
KS21 070835Z AUTO 20006KT 10SM OVC018 04/03 A3004 RMK AO2
KS21 070815Z AUTO 20006KT 10SM OVC017 04/03 A3004 RMK AO2
KS21 070755Z AUTO 23004KT 10SM OVC017 04/03 A3004 RMK AO2
KS21 070735Z AUTO 22004KT 10SM OVC018 03/03 A3004 RMK AO2
KS21 070710Z AUTO 20005KT 10SM OVC017 04/03 A3004 RMK AO2
KS21 070655Z AUTO 20005KT 10SM BKN017 OVC024 04/03 A3004 RMK AO2
KS21 070635Z AUTO 21005KT 10SM BKN019 OVC023 03/03 A3004 RMK AO2
KS21 070615Z AUTO 18004KT 10SM FEW016 BKN023 03/02 A3003 RMK AO2
KS21 070555Z AUTO 22005KT 10SM FEW017 BKN024 04/03 A3004 RMK AO2
KS21 070535Z AUTO 22006KT 10SM OVC024 04/03 A3003 RMK AO2
KS21 070515Z AUTO 22007KT 10SM SCT020 OVC025 05/04 A3003 RMK AO2
KS21 070455Z AUTO 22006KT 10SM BKN019 OVC027 05/04 A3003 RMK AO2
KS21 070430Z AUTO 23005KT 10SM BKN018 OVC023 05/04 A3003 RMK AO2
KS21 070415Z AUTO 22007KT 10SM BKN018 BKN025 OVC032 05/04 A3003 RMK AO2
KS21 070355Z AUTO 20006KT 10SM OVC021 04/04 A3003 RMK AO2
KS21 070335Z AUTO 22003KT 10SM SCT012 OVC024 04/03 A3004 RMK AO2
KS21 070315Z AUTO 22004KT 10SM OVC012 04/04 A3003 RMK AO2
KS21 070255Z AUTO 17003KT 10SM BKN011 BKN022 OVC100 04/03 A3004 RMK AO2
KS21 070235Z AUTO 22003KT 10SM SCT010 SCT013 BKN020 04/04 A3003 RMK AO2
KS21 070215Z AUTO 23005KT 10SM BKN011 OVC020 04/04 A3003 RMK AO2
KS21 070155Z AUTO 21007KT 10SM FEW007 BKN020 OVC024 05/04 A3004 RMK AO2
KS21 070135Z AUTO 16004KT 10SM SCT024 BKN055 OVC075 05/04 A3005 RMK AO2
KS21 070115Z AUTO 20007KT 10SM FEW010 SCT037 BKN060 05/04 A3004 RMK AO2
KS21 070055Z AUTO 21012KT 10SM BKN009 OVC038 05/04 A3003 RMK AO2
KS21 070035Z AUTO 20008KT 10SM SCT008 BKN012 OVC022 05/04 A3004 RMK AO2
KS21 070015Z AUTO 17011G17KT 10SM BKN012 BKN024 OVC075 05/04 A3004 RMK AO2
KS21 062350Z AUTO 18012KT 10SM SCT009 BKN055 OVC075 05/04 A3004 RMK AO2
KS21 062335Z AUTO 18010KT 10SM -UP BKN009 OVC013 05/04 A3004 RMK AO2
KS21 062315Z AUTO 19010KT 10SM -UP BKN010 OVC014 05/04 A3005 RMK AO2
KS21 062255Z AUTO 18009KT 160V220 10SM BKN014 OVC060 05/04 A3005 RMK AO2
KS21 062235Z AUTO 15010KT 9SM -UP BKN013 BKN048 OVC070 05/04 A3005 RMK AO2
KS21 062210Z AUTO 17013KT 9SM OVC012 05/04 A3005 RMK AO2
KS21 062155Z AUTO 18011KT 9SM -UP OVC011 05/04 A3005 RMK AO2
KS21 062135Z AUTO 20008KT 10SM OVC008 05/04 A3006 RMK AO2
KS21 062115Z AUTO 20006KT 10SM -UP BKN008 BKN022 OVC027 05/04 A3006 RMK AO2
KS21 062055Z AUTO 20008KT 10SM BKN022 BKN027 OVC110 05/03 A3007 RMK AO2
KS21 062035Z AUTO 21010KT 10SM FEW019 BKN100 04/03 A3007 RMK AO2
KS21 062010Z AUTO 21009KT 10SM FEW019 OVC090 04/03 A3009 RMK AO2
KS21 061955Z AUTO 21009KT 10SM SCT019 OVC080 04/02 A3009 RMK AO2
KS21 061935Z AUTO 20006KT 10SM 04/02 A3011 RMK AO2
KS21 061910Z AUTO 23008KT 10SM BKN016 OVC080 03/02 A3012 RMK AO2
KS21 061855Z AUTO 21007KT 10SM SCT016 OVC080 03/02 A3013 RMK AO2
KS21 061835Z AUTO 19008KT 10SM BKN016 OVC080 03/02 A3014 RMK AO2
KS21 061815Z AUTO 19011KT 10SM OVC016 02/01 A3014 RMK AO2
KS21 061755Z AUTO 22006KT 10SM BKN017 OVC023 02/01 A3015 RMK AO2
KS21 061735Z AUTO 21007KT 10SM SCT019 BKN024 BKN046 02/01 A3017 RMK AO2
KS21 061715Z AUTO 21008KT 9SM -UP FEW024 FEW041 BKN046 02/01 A3015 RMK AO2
KS21 061655Z AUTO 21009KT 10SM BKN025 BKN031 OVC046 02/01 A3016 RMK AO2
KS21 061635Z AUTO 20010KT 10SM SCT015 BKN024 OVC031 02/01 A3016 RMK AO2
KS21 061610Z AUTO 22007G13KT 10SM FEW015 BKN025 OVC029 02/00 A3017 RMK AO2
KS21 061555Z AUTO 23008KT 10SM FEW023 BKN029 OVC070 02/00 A3017 RMK AO2
KS21 061535Z AUTO 22008KT 10SM FEW014 FEW023 OVC070 01/00 A3014 RMK AO2
KS21 061515Z AUTO 20010KT 10SM FEW013 OVC070 01/M00 A3015 RMK AO2
KS21 061455Z AUTO 19013KT 10SM FEW018 OVC070 01/M00 A3015 RMK AO2
KS21 061435Z AUTO 17012KT 10SM -UP FEW018 OVC070 01/M01 A3018 RMK AO2
KS21 061415Z AUTO 16012G21KT 10SM OVC070 03/M01 A3019 RMK AO2
KS21 061355Z AUTO 15018G23KT 10SM FEW021 BKN075 OVC095 03/00 A3018 RMK AO2
KS21 061335Z AUTO 17014KT 10SM FEW028 SCT041 OVC090 03/M00 A3019 RMK AO2
KS21 061315Z AUTO 18015KT 10SM -UP FEW029 SCT041 OVC075 03/M01 A3019 RMK AO2
KS21 061250Z AUTO 19009KT 10SM BKN037 BKN044 OVC090 02/M01 A3021 RMK AO2
KS21 061235Z AUTO 22006KT 10SM SCT037 BKN044 OVC075 01/M02 A3021 RMK AO2
KS21 061215Z AUTO 20003KT 10SM FEW016 BKN048 OVC095 00/M03 A3022 RMK AO2
KS21 061155Z AUTO 21006KT 10SM -UP SCT028 BKN033 OVC095 00/M03 A3023 RMK AO2
KS21 061135Z AUTO 18008KT 10SM -UP SCT034 SCT042 OVC075 00/M04 A3025 RMK AO2
KS21 061115Z AUTO 22008KT 10SM FEW034 FEW044 OVC070 00/M05 A3025 RMK AO2
KS21 061055Z AUTO 22007KT 10SM FEW033 FEW060 OVC075 01/M05 A3026 RMK AO2
KS21 061035Z AUTO 16008KT 10SM FEW030 SCT055 OVC075 00/M05 A3026 RMK AO2
KS21 061015Z AUTO 19005KT 10SM FEW044 BKN055 OVC110 M00/M05 A3026 RMK AO2
KS21 060955Z AUTO 15003KT 10SM FEW043 BKN055 OVC110 M00/M05 A3027 RMK AO2
KS21 060935Z AUTO 18007KT 10SM FEW048 BKN055 OVC075 M00/M05 A3027 RMK AO2
KS21 060910Z AUTO 18009KT 10SM FEW060 BKN070 OVC080 M00/M05 A3028 RMK AO2
KS21 060855Z AUTO 17006KT 10SM FEW060 BKN070 OVC120 M01/M05 A3028 RMK AO2
KS21 060835Z AUTO 18008KT 10SM BKN070 OVC090 M00/M05 A3029 RMK AO2
KS21 060815Z AUTO 18008KT 10SM FEW075 BKN090 OVC110 M00/M05 A3030 RMK AO2
KS21 060755Z AUTO 18009KT 10SM FEW060 BKN075 OVC090 M01/M05 A3030 RMK AO2
KS21 060735Z AUTO 18009KT 10SM SCT060 BKN075 OVC095 M01/M05 A3031 RMK AO2